Gobernador Roca, Argentina
Current Conditions -  °F | °C
As of 9:00 AM on Friday 24 Oct 2014 (Local Time) from SARP Reporting Station
Clear Clear  
Wind Chill: 79°   Ceiling: Unl
Heat Index: 80°   Visibility: 6mi
Dew Point: 63°   Wind: 5mph
Humidity: 57%   Direction: 50°NE
Pressure: 29.94"   Gusts: NA
Location:  27.18°S, 55.47°W
Report Text: SARP 241200Z 05004KT CAVOK 26/17 Q1014
Loading
Personal Weather Stations






























Interactive Weather Map New forecast layout! Learn more

10-Day Weather Forecast

Advertisements
Track Severe Weather on mobile